Time;durP1;ratioP1;P1;durP2;ratioP2;P2;SDS_P1;SDS_P2;PMS_P1;PMS_P2;Temp;Humidity;BMP_temperature;BMP_pressure;BME280_temperature;BME280_humidity;BME280_pressure;Samples;Min_cycle;Max_cycle;Signal;HPM_P1;HPM_P2
2022/10/29 00:00:52;;;;;;;;;;;;;;;-143.57;100.00;50925.31;4959548;28;19946;-70
2022/10/29 00:03:19;;;;;;;;;;;;;;;-143.57;100.00;50919.34;4960930;28;19997;-70
2022/10/29 00:05:56;;;;;;;;;;;;;;;-143.57;100.00;50905.41;4956506;28;19936;-70
2022/10/29 00:08:23;;;;;;;;;;;;;;;-143.57;100.00;50933.25;4956336;28;19941;-69
2022/10/29 00:10:50;;;;;;;;;;;;;;;-143.57;100.00;50907.41;4959708;28;20044;-68
2022/10/29 00:13:16;;;;;;;;;;;;;;;-143.57;100.00;50903.44;4955314;28;19930;-68
2022/10/29 00:15:43;;;;;;;;;;;;;;;-143.57;100.00;50909.41;4966023;28;19935;-68
2022/10/29 00:18:09;;;;;;;;;;;;;;;-143.57;100.00;50917.34;4941725;28;19930;-68
2022/10/29 00:20:36;;;;;;;;;;;;;;;-143.57;100.00;50897.47;4958322;28;20032;-69
2022/10/29 00:23:03;;;;;;;;;;;;;;;-143.57;100.00;50893.50;4966591;28;19930;-69
2022/10/29 00:25:29;;;;;;;;;;;;;;;-143.57;100.00;50909.41;4939748;28;20045;-68
2022/10/29 00:27:57;;;;;;;;;;;;;;;-143.57;100.00;50921.31;4956820;28;19977;-68
2022/10/29 00:30:24;;;;;;;;;;;;;;;-143.57;100.00;50917.34;4960127;28;19927;-68
2022/10/29 00:32:50;;;;;;;;;;;;;;;-143.57;100.00;50921.31;4966316;28;20424;-69
2022/10/29 00:35:17;;;;;;;;;;;;;;;-143.57;100.00;50929.28;4957065;28;19931;-68
2022/10/29 00:37:45;;;;;;;;;;;;;;;-143.57;100.00;50919.34;4943174;28;19934;-70
2022/10/29 00:40:12;;;;;;;;;;;;;;;-143.57;100.00;50909.41;4958895;28;20339;-69
2022/10/29 00:42:38;;;;;;;;;;;;;;;-143.57;100.00;50917.34;4946847;28;19966;-69
2022/10/29 00:45:05;;;;;;;;;;;;;;;-143.57;100.00;50921.31;4966718;28;20040;-69
2022/10/29 00:47:35;;;;;;;;;;;;;;;-143.57;100.00;50909.41;4959304;28;19929;-70
2022/10/29 00:50:06;;;;;;;;;;;;;;;-143.57;100.00;50913.38;4961465;28;19952;-69
2022/10/29 00:52:37;;;;;;;;;;;;;;;-143.57;100.00;50941.19;4957747;28;19974;-69
2022/10/29 00:55:05;;;;;;;;;;;;;;;-143.57;100.00;50901.44;4958950;28;20395;-70
2022/10/29 00:57:41;;;;;;;;;;;;;;;-143.57;100.00;50929.28;4955209;28;21406;-69
2022/10/29 01:00:09;;;;;;;;;;;;;;;-143.57;100.00;50953.13;4960048;28;20171;-69
2022/10/29 01:02:37;;;;;;;;;;;;;;;-143.57;100.00;50901.44;4955010;28;20403;-69
2022/10/29 01:05:05;;;;;;;;;;;;;;;-143.57;100.00;50917.34;4946136;28;19934;-70
2022/10/29 01:07:31;;;;;;;;;;;;;;;-143.57;100.00;50925.31;4958977;28;20391;-70
2022/10/29 01:09:58;;;;;;;;;;;;;;;-143.57;100.00;50919.34;4961951;28;19930;-70
2022/10/29 01:12:36;;;;;;;;;;;;;;;-143.57;100.00;50895.47;4953216;28;19926;-70
2022/10/29 01:15:02;;;;;;;;;;;;;;;-143.57;100.00;50905.41;4967793;28;19926;-70
2022/10/29 01:17:41;;;;;;;;;;;;;;;-143.57;100.00;50933.25;4960313;28;19948;-70
2022/10/29 01:20:07;;;;;;;;;;;;;;;-143.57;100.00;50925.31;4963481;28;19930;-69
2022/10/29 01:22:45;;;;;;;;;;;;;;;-143.57;100.00;50917.34;4959403;28;19931;-69
2022/10/29 01:25:30;;;;;;;;;;;;;;;-143.57;100.00;50917.34;4965156;28;20017;-69
2022/10/29 01:28:15;;;;;;;;;;;;;;;-143.57;100.00;50921.31;4962805;28;19940;-69
2022/10/29 01:30:51;;;;;;;;;;;;;;;-143.57;100.00;50901.44;4933797;28;20399;-69
2022/10/29 01:33:24;;;;;;;;;;;;;;;-143.57;100.00;50945.19;4967134;28;20440;-69
2022/10/29 01:36:04;;;;;;;;;;;;;;;-143.57;100.00;50913.38;4963268;28;19984;-69
2022/10/29 01:38:41;;;;;;;;;;;;;;;-143.57;100.00;50921.31;4959753;28;20794;-69
2022/10/29 01:41:25;;;;;;;;;;;;;;;-143.57;100.00;50921.31;4968327;28;19929;-69
2022/10/29 01:43:56;;;;;;;;;;;;;;;-143.57;100.00;50945.19;4965937;28;19930;-69
2022/10/29 01:46:22;;;;;;;;;;;;;;;-143.57;100.00;50921.31;4959724;28;19930;-68
2022/10/29 01:48:53;;;;;;;;;;;;;;;-143.57;100.00;50945.19;4963885;28;19930;-69
2022/10/29 01:51:29;;;;;;;;;;;;;;;-143.57;100.00;50939.22;4959454;28;20574;-68
2022/10/29 01:53:57;;;;;;;;;;;;;;;-143.57;100.00;50905.41;4958162;28;19930;-69
2022/10/29 01:56:25;;;;;;;;;;;;;;;-143.57;100.00;50953.13;4965680;28;19936;-69
2022/10/29 01:58:53;;;;;;;;;;;;;;;-143.57;100.00;50913.38;4965105;28;20009;-68
2022/10/29 02:01:44;;;;;;;;;;;;;;;-143.57;100.00;50893.50;4957621;28;19927;-68
2022/10/29 02:04:30;;;;;;;;;;;;;;;-143.57;100.00;50925.31;4965599;28;19933;-70
2022/10/29 02:07:02;;;;;;;;;;;;;;;-143.57;100.00;50917.34;4957894;28;20040;-67
2022/10/29 02:09:49;;;;;;;;;;;;;;;-143.57;100.00;50901.44;4960637;28;19941;-68
2022/10/29 02:12:19;;;;;;;;;;;;;;;-143.57;100.00;50925.31;4956018;28;19930;-68
2022/10/29 02:14:49;;;;;;;;;;;;;;;-143.57;100.00;50953.13;4963638;28;20616;-67
2022/10/29 02:17:16;;;;;;;;;;;;;;;-143.57;100.00;50897.47;4960635;28;19937;-68
2022/10/29 02:19:43;;;;;;;;;;;;;;;-143.57;100.00;50925.31;4967890;28;19989;-68
2022/10/29 02:22:10;;;;;;;;;;;;;;;-143.57;100.00;50945.19;4959933;28;19936;-70
2022/10/29 02:24:36;;;;;;;;;;;;;;;-143.57;100.00;50889.53;4958474;28;19969;-69
2022/10/29 02:27:03;;;;;;;;;;;;;;;-143.57;100.00;50889.53;4956401;28;20012;-68
2022/10/29 02:29:29;;;;;;;;;;;;;;;-143.57;100.00;50913.38;4946507;28;19933;-68
2022/10/29 02:31:56;;;;;;;;;;;;;;;-143.57;100.00;50939.22;4962704;28;21346;-68
2022/10/29 02:34:24;;;;;;;;;;;;;;;-143.57;100.00;50945.19;4969829;28;19940;-68
2022/10/29 02:36:50;;;;;;;;;;;;;;;-143.57;100.00;50889.53;4969712;28;20406;-68
2022/10/29 02:39:17;;;;;;;;;;;;;;;-143.57;100.00;50901.44;4962889;28;19985;-68
2022/10/29 02:41:44;;;;;;;;;;;;;;;-143.57;100.00;50921.31;4971048;28;19981;-68
2022/10/29 02:44:11;;;;;;;;;;;;;;;-143.57;100.00;50911.38;4934358;28;19929;-68
2022/10/29 02:46:38;;;;;;;;;;;;;;;-143.57;100.00;50901.44;4968826;28;19930;-67
2022/10/29 02:49:05;;;;;;;;;;;;;;;-143.57;100.00;50969.03;4963278;28;19972;-69
2022/10/29 02:51:32;;;;;;;;;;;;;;;-143.57;100.00;50931.25;4968550;28;19933;-68
2022/10/29 02:54:00;;;;;;;;;;;;;;;-143.57;100.00;50925.31;4957924;28;19969;-68
2022/10/29 02:56:27;;;;;;;;;;;;;;;-143.57;100.00;50921.31;4962911;28;19993;-69
2022/10/29 02:58:54;;;;;;;;;;;;;;;-143.57;100.00;50933.25;4959207;28;19934;-68
2022/10/29 03:01:21;;;;;;;;;;;;;;;-143.57;100.00;50929.28;4957139;28;20027;-68
2022/10/29 03:03:47;;;;;;;;;;;;;;;-143.57;100.00;50931.25;4965335;28;19977;-70
2022/10/29 03:06:16;;;;;;;;;;;;;;;-143.57;100.00;50933.25;4959618;28;19985;-69
2022/10/29 03:08:43;;;;;;;;;;;;;;;-143.57;100.00;50905.41;4965681;28;20019;-68
2022/10/29 03:11:10;;;;;;;;;;;;;;;-143.57;100.00;50923.31;4945395;28;19940;-68
2022/10/29 03:13:37;;;;;;;;;;;;;;;-143.57;100.00;50921.31;4975558;28;19930;-68
2022/10/29 03:16:05;;;;;;;;;;;;;;;-143.57;100.00;50965.06;4963973;28;19926;-68
2022/10/29 03:18:32;;;;;;;;;;;;;;;-143.57;100.00;50953.13;4969027;28;20000;-68
2022/10/29 03:20:59;;;;;;;;;;;;;;;-143.57;100.00;50931.25;4958053;28;20327;-68
2022/10/29 03:23:26;;;;;;;;;;;;;;;-143.57;100.00;50919.34;4964029;28;19926;-68
2022/10/29 03:25:53;;;;;;;;;;;;;;;-143.57;100.00;50921.31;4962600;28;20021;-69
2022/10/29 03:28:22;;;;;;;;;;;;;;;-143.57;100.00;50921.31;4968336;28;20355;-69
2022/10/29 03:30:50;;;;;;;;;;;;;;;-143.57;100.00;50933.25;4965523;28;19941;-69
2022/10/29 03:33:17;;;;;;;;;;;;;;;-143.57;100.00;50953.13;4961135;28;19941;-68
2022/10/29 03:35:43;;;;;;;;;;;;;;;-143.57;100.00;50941.19;4961919;28;19931;-68
2022/10/29 03:38:10;;;;;;;;;;;;;;;-143.57;100.00;50913.38;4964040;28;20024;-70
2022/10/29 03:40:37;;;;;;;;;;;;;;;-143.57;100.00;50921.31;4968662;28;20033;-68
2022/10/29 03:43:03;;;;;;;;;;;;;;;-143.57;100.00;50941.19;4957931;28;19949;-70
2022/10/29 03:45:30;;;;;;;;;;;;;;;-143.57;100.00;50953.13;4947928;28;20060;-69
2022/10/29 03:47:57;;;;;;;;;;;;;;;-143.57;100.00;50941.19;4962770;28;20005;-69
2022/10/29 03:50:24;;;;;;;;;;;;;;;-143.57;100.00;50889.53;4958696;28;19937;-69
2022/10/29 03:52:50;;;;;;;;;;;;;;;-143.57;100.00;50913.38;4957529;28;19929;-70
2022/10/29 03:55:17;;;;;;;;;;;;;;;-143.57;100.00;50949.16;4967940;28;19960;-70
2022/10/29 03:57:44;;;;;;;;;;;;;;;-143.57;100.00;50943.19;4959075;28;20749;-70
2022/10/29 04:00:10;;;;;;;;;;;;;;;-143.57;100.00;50929.28;4965938;28;20033;-70
2022/10/29 04:02:41;;;;;;;;;;;;;;;-143.57;100.00;50905.41;4957000;28;20775;-70
2022/10/29 04:05:08;;;;;;;;;;;;;;;-143.57;100.00;50941.19;4960369;28;19948;-70
2022/10/29 04:07:35;;;;;;;;;;;;;;;-143.57;100.00;50941.19;4958900;28;20049;-70
2022/10/29 04:10:02;;;;;;;;;;;;;;;-143.57;100.00;50905.41;4940649;28;19929;-70
2022/10/29 04:12:28;;;;;;;;;;;;;;;-143.57;100.00;50913.38;4946867;28;20000;-70
2022/10/29 04:14:57;;;;;;;;;;;;;;;-143.57;100.00;50909.41;4954735;28;20376;-70
2022/10/29 04:17:24;;;;;;;;;;;;;;;-143.57;100.00;50919.34;4962268;28;20643;-71
2022/10/29 04:19:50;;;;;;;;;;;;;;;-143.57;100.00;50943.19;4954452;28;19934;-70
2022/10/29 04:22:17;;;;;;;;;;;;;;;-143.57;100.00;50913.38;4958330;28;20312;-69
2022/10/29 04:25:04;;;;;;;;;;;;;;;-143.57;100.00;50899.47;4959533;28;19934;-68
2022/10/29 04:27:52;;;;;;;;;;;;;;;-143.57;100.00;50913.38;4958682;28;19965;-68
2022/10/29 04:30:39;;;;;;;;;;;;;;;-143.57;100.00;50969.03;4957093;28;19930;-68
2022/10/29 04:33:06;;;;;;;;;;;;;;;-143.57;100.00;50935.25;4964147;28;19984;-68
2022/10/29 04:35:32;;;;;;;;;;;;;;;-143.57;100.00;50929.28;4960061;28;19937;-68
2022/10/29 04:38:06;;;;;;;;;;;;;;;-143.57;100.00;50925.31;4964799;28;19941;-67
2022/10/29 04:40:32;;;;;;;;;;;;;;;-143.57;100.00;50937.22;4962863;28;20549;-67
2022/10/29 04:42:59;;;;;;;;;;;;;;;-143.57;100.00;50939.22;4965650;28;19933;-67
2022/10/29 04:45:26;;;;;;;;;;;;;;;-143.57;100.00;50929.28;4959836;28;19969;-66
2022/10/29 04:47:59;;;;;;;;;;;;;;;-143.57;100.00;50917.34;4958561;28;19941;-67
2022/10/29 04:50:26;;;;;;;;;;;;;;;-143.57;100.00;50905.41;4960346;28;19961;-67
2022/10/29 04:52:57;;;;;;;;;;;;;;;-143.57;100.00;50921.31;4965372;28;19929;-67
2022/10/29 04:55:24;;;;;;;;;;;;;;;-143.57;100.00;50921.31;4957204;28;20680;-67
2022/10/29 04:57:50;;;;;;;;;;;;;;;-143.57;100.00;50971.03;4960828;28;19933;-67
2022/10/29 05:00:17;;;;;;;;;;;;;;;-143.57;100.00;50963.06;4959047;28;19930;-67
2022/10/29 05:02:48;;;;;;;;;;;;;;;-143.57;100.00;50933.25;4958503;28;20057;-68
2022/10/29 05:05:15;;;;;;;;;;;;;;;-143.57;100.00;50929.28;4965594;28;19930;-68
2022/10/29 05:07:42;;;;;;;;;;;;;;;-143.57;100.00;50937.22;4962395;28;19972;-67
2022/10/29 05:10:09;;;;;;;;;;;;;;;-143.57;100.00;50949.16;4959847;28;20001;-68
2022/10/29 05:12:35;;;;;;;;;;;;;;;-143.57;100.00;50929.28;4945773;28;20411;-69
2022/10/29 05:15:02;;;;;;;;;;;;;;;-143.57;100.00;50935.25;4960975;28;19934;-67
2022/10/29 05:17:29;;;;;;;;;;;;;;;-143.57;100.00;50929.28;4958288;28;19930;-68
2022/10/29 05:19:56;;;;;;;;;;;;;;;-143.57;100.00;50917.34;4963141;28;19953;-68
2022/10/29 05:22:22;;;;;;;;;;;;;;;-143.57;100.00;50933.25;4958198;28;21221;-68
2022/10/29 05:24:49;;;;;;;;;;;;;;;-143.57;100.00;50957.09;4962616;28;20016;-69
2022/10/29 05:27:15;;;;;;;;;;;;;;;-143.57;100.00;50949.16;4968764;28;19980;-66
2022/10/29 05:29:42;;;;;;;;;;;;;;;-143.57;100.00;50925.31;4956944;28;20434;-67
2022/10/29 05:32:09;;;;;;;;;;;;;;;-143.57;100.00;50965.06;4964585;28;19930;-67
2022/10/29 05:34:35;;;;;;;;;;;;;;;-143.57;100.00;50947.16;4960215;28;19930;-66
2022/10/29 05:37:04;;;;;;;;;;;;;;;-143.57;100.00;50929.28;4965211;28;20036;-67
2022/10/29 05:39:31;;;;;;;;;;;;;;;-143.57;100.00;50925.31;4960259;28;19970;-67
2022/10/29 05:41:58;;;;;;;;;;;;;;;-143.57;100.00;50917.34;4971264;28;19933;-68
2022/10/29 05:44:24;;;;;;;;;;;;;;;-143.57;100.00;50953.13;4965417;28;19929;-68
2022/10/29 05:46:51;;;;;;;;;;;;;;;-143.57;100.00;50935.25;4961633;28;19969;-68
2022/10/29 05:49:17;;;;;;;;;;;;;;;-143.57;100.00;50907.41;4960249;28;20651;-69
2022/10/29 05:51:44;;;;;;;;;;;;;;;-143.57;100.00;50933.25;4962482;28;20338;-68
2022/10/29 05:54:11;;;;;;;;;;;;;;;-143.57;100.00;50929.28;4959817;28;19931;-68
2022/10/29 05:56:38;;;;;;;;;;;;;;;-143.57;100.00;50945.19;4958136;28;20649;-68
2022/10/29 05:59:04;;;;;;;;;;;;;;;-143.57;100.00;50953.13;4942702;28;19981;-68
2022/10/29 06:01:31;;;;;;;;;;;;;;;-143.57;100.00;50941.19;4954353;28;19938;-68
2022/10/29 06:04:00;;;;;;;;;;;;;;;-143.57;100.00;50917.34;4965202;28;20028;-68
2022/10/29 06:06:26;;;;;;;;;;;;;;;-143.57;100.00;50976.97;4965275;28;19936;-69
2022/10/29 06:08:53;;;;;;;;;;;;;;;-143.57;100.00;50925.31;4965257;28;20041;-68
2022/10/29 06:11:20;;;;;;;;;;;;;;;-143.57;100.00;50992.88;4962211;28;19930;-68
2022/10/29 06:13:46;;;;;;;;;;;;;;;-143.57;100.00;50969.03;4960861;28;20020;-69
2022/10/29 06:16:13;;;;;;;;;;;;;;;-143.57;100.00;50937.22;4958333;28;19930;-68
2022/10/29 06:18:39;;;;;;;;;;;;;;;-143.57;100.00;50969.03;4960839;28;19930;-69
2022/10/29 06:21:06;;;;;;;;;;;;;;;-143.57;100.00;50959.09;4962257;28;19930;-68
2022/10/29 06:23:33;;;;;;;;;;;;;;;-143.57;100.00;50929.28;4962719;28;21384;-68
2022/10/29 06:26:00;;;;;;;;;;;;;;;-143.57;100.00;50973.00;4965424;28;19954;-68
2022/10/29 06:28:27;;;;;;;;;;;;;;;-143.57;100.00;50969.03;4958578;28;19927;-67
2022/10/29 06:31:00;;;;;;;;;;;;;;;-143.57;100.00;50961.06;4965638;28;20159;-65
2022/10/29 06:33:27;;;;;;;;;;;;;;;-143.57;100.00;50945.19;4954780;28;20371;-66
2022/10/29 06:35:56;;;;;;;;;;;;;;;-143.57;100.00;50921.31;4962485;28;20858;-66
2022/10/29 06:38:23;;;;;;;;;;;;;;;-143.57;100.00;50923.31;4956724;28;19997;-66
2022/10/29 06:40:54;;;;;;;;;;;;;;;-143.57;100.00;50957.09;4957439;28;19930;-66
2022/10/29 06:43:20;;;;;;;;;;;;;;;-143.57;100.00;50933.25;4955704;28;19930;-66
2022/10/29 06:45:48;;;;;;;;;;;;;;;-143.57;100.00;50925.31;4963373;28;20455;-67
2022/10/29 06:48:15;;;;;;;;;;;;;;;-143.57;100.00;50941.19;4960454;28;20012;-66
2022/10/29 06:50:48;;;;;;;;;;;;;;;-143.57;100.00;50973.00;4961034;28;20375;-67
2022/10/29 06:53:15;;;;;;;;;;;;;;;-143.57;100.00;50969.03;4962779;28;20404;-65
2022/10/29 06:55:41;;;;;;;;;;;;;;;-143.57;100.00;50925.31;4955987;28;20331;-66
2022/10/29 06:58:08;;;;;;;;;;;;;;;-143.57;100.00;50965.06;4957594;28;19931;-65
2022/10/29 07:00:35;;;;;;;;;;;;;;;-143.57;100.00;50975.00;4950971;28;20029;-66
2022/10/29 07:03:03;;;;;;;;;;;;;;;-143.57;100.00;50945.19;4959101;28;21166;-65
2022/10/29 07:05:31;;;;;;;;;;;;;;;-143.57;100.00;50949.16;4962598;28;20028;-66
2022/10/29 07:07:58;;;;;;;;;;;;;;;-143.57;100.00;50957.09;4959509;28;19930;-66
2022/10/29 07:10:27;;;;;;;;;;;;;;;-143.57;100.00;50957.09;4961866;28;19934;-66
2022/10/29 07:12:53;;;;;;;;;;;;;;;-143.57;100.00;50933.25;4967779;28;19933;-67
2022/10/29 07:15:20;;;;;;;;;;;;;;;-143.57;100.00;50969.03;4960150;28;21052;-66
2022/10/29 07:18:00;;;;;;;;;;;;;;;-143.57;100.00;50969.03;4959473;28;19937;-68
2022/10/29 07:20:27;;;;;;;;;;;;;;;-143.57;100.00;50957.09;4955552;28;19933;-67
2022/10/29 07:22:56;;;;;;;;;;;;;;;-143.57;100.00;50949.16;4958836;28;19926;-68
2022/10/29 07:25:23;;;;;;;;;;;;;;;-143.57;100.00;50957.09;4959757;28;19926;-67
2022/10/29 07:27:50;;;;;;;;;;;;;;;-143.57;100.00;50953.13;4961345;28;20371;-67
2022/10/29 07:30:16;;;;;;;;;;;;;;;-143.57;100.00;50961.06;4961297;28;19926;-67
2022/10/29 07:32:43;;;;;;;;;;;;;;;-143.57;100.00;50976.97;4957484;28;20057;-67
2022/10/29 07:35:10;;;;;;;;;;;;;;;-143.57;100.00;50965.06;4960898;28;20422;-67
2022/10/29 07:37:36;;;;;;;;;;;;;;;-143.57;100.00;50961.06;4955648;28;19930;-66
2022/10/29 07:40:03;;;;;;;;;;;;;;;-143.57;100.00;50973.00;4965224;28;20053;-67
2022/10/29 07:42:30;;;;;;;;;;;;;;;-143.57;100.00;50984.94;4959508;28;19933;-67
2022/10/29 07:44:56;;;;;;;;;;;;;;;-143.57;100.00;50937.22;4955366;28;19984;-67
2022/10/29 07:47:24;;;;;;;;;;;;;;;-143.57;100.00;50969.03;4945401;28;19930;-67
2022/10/29 07:49:51;;;;;;;;;;;;;;;-143.57;100.00;50941.19;4967089;28;20012;-67
2022/10/29 07:52:17;;;;;;;;;;;;;;;-143.57;100.00;50969.03;4970444;28;20661;-67
2022/10/29 07:54:44;;;;;;;;;;;;;;;-143.57;100.00;50921.31;4967504;28;19926;-68
2022/10/29 07:57:11;;;;;;;;;;;;;;;-143.57;100.00;50973.00;4966872;28;19950;-68
2022/10/29 07:59:37;;;;;;;;;;;;;;;-143.57;100.00;50967.03;4963492;28;19929;-67
2022/10/29 08:02:04;;;;;;;;;;;;;;;-143.57;100.00;50949.16;4967249;28;19926;-67
2022/10/29 08:04:31;;;;;;;;;;;;;;;-143.57;100.00;50984.94;4962853;28;19933;-68
2022/10/29 08:06:58;;;;;;;;;;;;;;;-143.57;100.00;50951.13;4962778;28;19973;-67
2022/10/29 08:09:24;;;;;;;;;;;;;;;-143.57;100.00;50957.09;4958899;28;19969;-68
2022/10/29 08:11:51;;;;;;;;;;;;;;;-143.57;100.00;50980.97;4944935;28;19931;-68
2022/10/29 08:14:17;;;;;;;;;;;;;;;-143.57;100.00;50955.13;4962198;28;19933;-67
2022/10/29 08:16:48;;;;;;;;;;;;;;;-143.57;100.00;50949.16;4966987;28;20249;-68
2022/10/29 08:19:14;;;;;;;;;;;;;;;-143.57;100.00;50976.97;4961037;28;20033;-68
2022/10/29 08:21:41;;;;;;;;;;;;;;;-143.57;100.00;50949.16;4964073;28;19981;-69
2022/10/29 08:24:08;;;;;;;;;;;;;;;-143.57;100.00;50973.00;4968311;28;20398;-70
2022/10/29 08:26:35;;;;;;;;;;;;;;;-143.57;100.00;50973.00;4961807;28;19929;-68
2022/10/29 08:29:02;;;;;;;;;;;;;;;-143.57;100.00;51000.84;4963329;28;20471;-67
2022/10/29 08:31:28;;;;;;;;;;;;;;;-143.57;100.00;50955.13;4963304;28;19934;-70
2022/10/29 08:33:55;;;;;;;;;;;;;;;-143.57;100.00;50967.03;4964666;28;20398;-68
2022/10/29 08:36:21;;;;;;;;;;;;;;;-143.57;100.00;50976.97;4940873;28;20339;-68
2022/10/29 08:38:48;;;;;;;;;;;;;;;-143.57;100.00;50969.03;4963696;28;19930;-69
2022/10/29 08:41:18;;;;;;;;;;;;;;;-143.57;100.00;50992.88;4959798;28;19930;-70
2022/10/29 08:44:09;;;;;;;;;;;;;;;-143.57;100.00;50963.06;4970663;28;19940;-69
2022/10/29 08:46:42;;;;;;;;;;;;;;;-143.57;100.00;50945.19;4959568;28;19937;-69
2022/10/29 08:49:13;;;;;;;;;;;;;;;-143.57;100.00;50965.06;4970394;28;19996;-69
2022/10/29 08:51:42;;;;;;;;;;;;;;;-143.57;100.00;51004.81;4959217;28;20437;-69
2022/10/29 08:54:12;;;;;;;;;;;;;;;-143.57;100.00;50980.97;4959146;28;20626;-69
2022/10/29 08:57:03;;;;;;;;;;;;;;;-143.57;100.00;50961.06;4955167;28;20025;-69
2022/10/29 08:59:31;;;;;;;;;;;;;;;-143.57;100.00;50967.03;4963254;28;19938;-69
2022/10/29 09:01:58;;;;;;;;;;;;;;;-143.57;100.00;50982.94;4958883;28;19930;-69
2022/10/29 09:04:43;;;;;;;;;;;;;;;-143.57;100.00;50980.97;4965592;28;20420;-69
2022/10/29 09:07:33;;;;;;;;;;;;;;;-143.57;100.00;50965.06;4960650;28;20008;-69
2022/10/29 09:10:05;;;;;;;;;;;;;;;-143.57;100.00;50959.09;4962228;28;19933;-69
2022/10/29 09:12:35;;;;;;;;;;;;;;;-143.57;100.00;51008.78;4960062;28;20011;-68
2022/10/29 09:15:04;;;;;;;;;;;;;;;-143.57;100.00;50984.94;4964104;28;20000;-69
2022/10/29 09:17:49;;;;;;;;;;;;;;;-143.57;100.00;50973.00;4958737;28;19961;-68
2022/10/29 09:20:35;;;;;;;;;;;;;;;-143.57;100.00;50971.03;4967290;28;19925;-68
2022/10/29 09:23:24;;;;;;;;;;;;;;;-143.57;100.00;50980.97;4957356;28;19934;-69
2022/10/29 09:26:02;;;;;;;;;;;;;;;-143.57;100.00;50959.09;4963360;28;19929;-69
2022/10/29 09:28:40;;;;;;;;;;;;;;;-143.57;96.34;50976.97;4957770;28;19930;-68
2022/10/29 09:31:16;;;;;;;;;;;;;;;-143.57;96.00;50951.13;4959411;28;19953;-68
2022/10/29 09:33:43;;;;;;;;;;;;;;;-143.57;94.19;50951.13;4942694;28;20016;-68
2022/10/29 09:36:14;;;;;;;;;;;;;;;-143.57;95.23;50965.06;4959762;28;20044;-69
2022/10/29 09:38:58;;;;;;;;;;;;;;;-143.57;93.34;50969.03;4960614;28;20359;-69
2022/10/29 09:41:25;;;;;;;;;;;;;;;-143.57;91.80;50992.88;4964148;28;19930;-69
2022/10/29 09:44:00;;;;;;;;;;;;;;;-143.57;92.18;50992.88;4966370;28;19934;-69
2022/10/29 09:46:46;;;;;;;;;;;;;;;-143.57;90.74;50984.94;4962914;28;19941;-69
2022/10/29 09:49:15;;;;;;;;;;;;;;;-143.57;64.55;50945.19;4964545;28;19985;-68
2022/10/29 09:51:57;;;;;;;;;;;;;;;-143.57;64.40;50982.94;4959298;28;19945;-69
2022/10/29 09:54:25;;;;;;;;;;;;;;;-143.57;64.08;50984.94;4958289;28;19996;-69
2022/10/29 09:56:52;;;;;;;;;;;;;;;-143.57;62.75;50949.16;4958473;28;19961;-68
2022/10/29 09:59:21;;;;;;;;;;;;;;;-143.57;62.17;50996.84;4961744;28;20459;-69
2022/10/29 10:01:48;;;;;;;;;;;;;;;-143.57;61.80;50975.00;4958433;28;20024;-68
2022/10/29 10:04:35;;;;;;;;;;;;;;;-143.57;60.81;51008.78;4962903;28;19934;-69
2022/10/29 10:07:04;;;;;;;;;;;;;;;-143.57;60.40;50976.97;4944198;28;19934;-68
2022/10/29 10:09:49;;;;;;;;;;;;;;;-143.57;60.26;50973.00;4965327;28;19938;-69
2022/10/29 10:12:16;;;;;;;;;;;;;;;-143.57;59.97;50967.03;4960760;28;19930;-68
2022/10/29 10:14:43;;;;;;;;;;;;;;;-143.57;59.38;50978.97;4957745;28;20025;-69
2022/10/29 10:17:09;;;;;;;;;;;;;;;-143.57;58.55;50973.00;4966875;28;20020;-68
2022/10/29 10:19:41;;;;;;;;;;;;;;;-143.57;60.32;50971.03;4963789;28;19930;-68
2022/10/29 10:22:15;;;;;;;;;;;;;;;-143.57;58.04;50967.03;4964801;28;20020;-67
2022/10/29 10:24:42;;;;;;;;;;;;;;;-143.57;58.18;50961.06;4968189;28;20540;-68
2022/10/29 10:27:17;;;;;;;;;;;;;;;-143.57;57.47;50953.13;4959794;28;20246;-67
2022/10/29 10:30:02;;;;;;;;;;;;;;;-143.57;56.77;50994.88;4969207;28;19933;-67
2022/10/29 10:32:29;;;;;;;;;;;;;;;-143.57;56.51;51024.69;4963269;28;19930;-68
2022/10/29 10:34:56;;;;;;;;;;;;;;;-143.57;56.01;50965.06;4962052;28;19940;-70
2022/10/29 10:37:23;;;;;;;;;;;;;;;-143.57;56.08;50980.97;4963003;28;20651;-66
2022/10/29 10:39:52;;;;;;;;;;;;;;;-143.57;55.33;50957.09;4961608;28;20490;-67
2022/10/29 10:42:25;;;;;;;;;;;;;;;-143.57;55.65;50967.03;4958983;28;19926;-69
2022/10/29 10:44:55;;;;;;;;;;;;;;;-143.57;53.87;50945.19;4959288;28;19926;-68
2022/10/29 10:47:24;;;;;;;;;;;;;;;-143.57;51.04;51020.72;4964051;28;20388;-69
2022/10/29 10:49:50;;;;;;;;;;;;;;;-143.57;49.97;50988.91;4961716;28;19937;-69
2022/10/29 10:52:20;;;;;;;;;;;;;;;-143.57;49.60;50969.03;4961453;28;19945;-68
2022/10/29 10:54:55;;;;;;;;;;;;;;;-143.57;49.08;51002.81;4959117;28;19969;-67
2022/10/29 10:57:24;;;;;;;;;;;;;;;-143.57;48.83;50957.09;4966217;28;19925;-67
2022/10/29 11:00:01;;;;;;;;;;;;;;;-143.57;49.13;50984.94;4965062;28;19931;-67
2022/10/29 11:02:42;;;;;;;;;;;;;;;-143.57;49.11;50976.97;4963590;28;19992;-66
2022/10/29 11:05:20;;;;;;;;;;;;;;;-143.57;48.19;50945.19;4964487;28;19940;-67
2022/10/29 11:07:52;;;;;;;;;;;;;;;-143.57;47.75;50949.16;4970772;28;19933;-66
2022/10/29 11:10:24;;;;;;;;;;;;;;;-143.57;47.20;50961.06;4967493;28;19930;-66
2022/10/29 11:12:53;;;;;;;;;;;;;;;-143.57;46.43;50969.03;4968114;28;20004;-67
2022/10/29 11:15:32;;;;;;;;;;;;;;;-143.57;46.42;50996.84;4963557;28;19977;-67
2022/10/29 11:18:02;;;;;;;;;;;;;;;-143.57;46.25;50978.97;4952508;28;19934;-66
2022/10/29 11:20:34;;;;;;;;;;;;;;;-143.57;45.29;50969.03;4961858;28;19930;-67
2022/10/29 11:23:01;;;;;;;;;;;;;;;-143.57;45.67;51012.75;4966093;28;20305;-67
2022/10/29 11:25:36;;;;;;;;;;;;;;;-143.57;45.00;50982.94;4965291;28;20996;-66
2022/10/29 11:28:05;;;;;;;;;;;;;;;-143.57;44.67;50992.88;4962781;28;19989;-67
2022/10/29 11:30:35;;;;;;;;;;;;;;;-143.57;44.29;50943.19;4960130;28;19984;-67
2022/10/29 11:33:11;;;;;;;;;;;;;;;-143.57;43.45;50982.94;4956376;28;19958;-67
2022/10/29 11:35:41;;;;;;;;;;;;;;;-143.57;43.49;50969.03;4962245;28;20016;-67
2022/10/29 11:38:23;;;;;;;;;;;;;;;-143.57;43.28;50973.00;4959258;28;20391;-67
2022/10/29 11:41:03;;;;;;;;;;;;;;;-143.57;42.71;50990.91;4962933;28;20213;-66
2022/10/29 11:43:31;;;;;;;;;;;;;;;-143.57;41.86;51012.75;4959610;28;19937;-67
2022/10/29 11:46:16;;;;;;;;;;;;;;;-143.57;41.74;50988.91;4957553;28;19973;-67
2022/10/29 11:49:01;;;;;;;;;;;;;;;-143.57;40.80;50933.25;4956624;28;19997;-67
2022/10/29 11:51:32;;;;;;;;;;;;;;;-143.57;40.16;50982.94;4959639;28;20068;-67
2022/10/29 11:53:58;;;;;;;;;;;;;;;-143.57;40.03;50969.03;4962762;28;19934;-66
2022/10/29 11:56:28;;;;;;;;;;;;;;;-143.57;39.26;51024.69;4955553;28;20556;-67
2022/10/29 11:59:06;;;;;;;;;;;;;;;-143.57;39.27;50957.09;4955867;28;19930;-66
2022/10/29 12:01:32;;;;;;;;;;;;;;;-143.57;38.45;50976.97;4956090;28;19934;-66
2022/10/29 12:04:12;;;;;;;;;;;;;;;-143.57;38.57;50976.97;4958045;28;19961;-66
2022/10/29 12:06:54;;;;;;;;;;;;;;;-143.57;37.82;50969.03;4962036;28;19926;-67
2022/10/29 12:09:36;;;;;;;;;;;;;;;-143.57;37.29;50996.84;4963385;28;20056;-67
2022/10/29 12:12:09;;;;;;;;;;;;;;;-143.57;37.00;50967.03;4958613;28;19933;-67
2022/10/29 12:14:42;;;;;;;;;;;;;;;-143.57;35.90;50984.94;4957746;28;19985;-67
2022/10/29 12:17:12;;;;;;;;;;;;;;;-143.57;34.78;50971.03;4955416;28;20000;-66
2022/10/29 12:19:39;;;;;;;;;;;;;;;-143.57;33.76;50976.97;4958599;28;19966;-67
2022/10/29 12:22:13;;;;;;;;;;;;;;;-143.57;32.53;50949.16;4957480;28;19942;-67
2022/10/29 12:24:40;;;;;;;;;;;;;;;-143.57;31.62;50949.16;4956778;28;19930;-67
2022/10/29 12:27:13;;;;;;;;;;;;;;;-143.57;30.81;50957.09;4962012;28;20007;-67
2022/10/29 12:29:57;;;;;;;;;;;;;;;-143.57;29.89;50953.13;4954133;28;19930;-67
2022/10/29 12:32:43;;;;;;;;;;;;;;;-143.57;28.24;50933.25;4955561;28;19926;-67
2022/10/29 12:35:12;;;;;;;;;;;;;;;-143.57;27.72;50945.19;4955697;28;19984;-67